Time;durP1;ratioP1;P1;durP2;ratioP2;P2;SDS_P1;SDS_P2;PMS_P1;PMS_P2;Temp;Humidity;BMP_temperature;BMP_pressure;BME280_temperature;BME280_humidity;BME280_pressure;Samples;Min_cycle;Max_cycle;Signal;HPM_P1;HPM_P2
2021/05/10 00:02:02;;;;;;;12.80;7.77;;;16.60;99.90;;;;;;4425100;32;20144;-67
2021/05/10 00:04:28;;;;;;;8.63;6.17;;;16.60;99.90;;;;;;4425348;32;20239;-65
2021/05/10 00:06:55;;;;;;;12.13;8.53;;;16.50;99.90;;;;;;4433550;32;20625;-67
2021/05/10 00:09:21;;;;;;;8.10;6.93;;;16.50;99.90;;;;;;4432597;32;20184;-67
2021/05/10 00:11:48;;;;;;;9.00;7.70;;;16.40;99.90;;;;;;4424568;32;20318;-66
2021/05/10 00:14:15;;;;;;;9.03;7.73;;;16.40;99.90;;;;;;4430261;32;20256;-67
2021/05/10 00:16:42;;;;;;;9.63;7.33;;;16.30;99.90;;;;;;4427834;32;20231;-66
2021/05/10 00:19:09;;;;;;;11.23;8.87;;;16.40;99.90;;;;;;4422436;32;20262;-69
2021/05/10 00:21:45;;;;;;;9.40;7.87;;;16.40;99.90;;;;;;4424283;32;20206;-67
2021/05/10 00:24:12;;;;;;;10.23;7.87;;;16.40;99.90;;;;;;4415650;32;20210;-64
2021/05/10 00:26:41;;;;;;;10.80;7.90;;;16.50;99.90;;;;;;4415582;32;20183;-67
2021/05/10 00:29:08;;;;;;;11.37;7.70;;;16.50;99.90;;;;;;4417806;32;20278;-66
2021/05/10 00:31:34;;;;;;;9.43;8.27;;;16.60;99.90;;;;;;4418526;32;20191;-67
2021/05/10 00:34:00;;;;;;;10.03;7.60;;;16.60;99.90;;;;;;4430110;32;20264;-68
2021/05/10 00:36:27;;;;;;;11.50;8.27;;;16.60;99.90;;;;;;4430875;32;20189;-68
2021/05/10 00:38:53;;;;;;;8.77;7.47;;;16.60;99.90;;;;;;4430140;32;20166;-66
2021/05/10 00:41:19;;;;;;;11.97;8.30;;;16.60;99.90;;;;;;4432635;32;20579;-67
2021/05/10 00:43:46;;;;;;;10.20;8.00;;;16.60;99.90;;;;;;4432628;32;20208;-68
2021/05/10 00:46:13;;;;;;;8.17;7.37;;;16.60;99.90;;;;;;4434407;32;20586;-66
2021/05/10 00:48:39;;;;;;;10.07;8.00;;;16.60;99.90;;;;;;4428163;32;20182;-68
2021/05/10 00:51:05;;;;;;;9.60;8.67;;;16.70;99.90;;;;;;4431632;32;20177;-67
2021/05/10 00:53:32;;;;;;;11.47;9.23;;;16.70;99.90;;;;;;4430454;32;20178;-69
2021/05/10 00:55:58;;;;;;;9.40;8.13;;;16.70;99.90;;;;;;4423248;32;20155;-67
2021/05/10 00:58:24;;;;;;;9.27;8.23;;;16.70;99.90;;;;;;4432171;32;20139;-69
2021/05/10 01:00:51;;;;;;;11.27;9.10;;;16.70;99.90;;;;;;4432189;32;20147;-66
2021/05/10 01:03:19;;;;;;;10.20;9.20;;;16.70;99.90;;;;;;4430003;32;20225;-65
2021/05/10 01:05:46;;;;;;;10.17;8.40;;;16.70;99.90;;;;;;4429084;32;20212;-68
2021/05/10 01:08:12;;;;;;;13.03;8.57;;;16.60;99.90;;;;;;4432108;32;20230;-67
2021/05/10 01:10:39;;;;;;;9.93;8.70;;;16.70;99.90;;;;;;4431636;32;20587;-67
2021/05/10 01:13:05;;;;;;;10.73;8.90;;;16.60;99.90;;;;;;4430397;32;20192;-67
2021/05/10 01:15:32;;;;;;;10.90;8.60;;;16.70;99.90;;;;;;4426284;32;20155;-67
2021/05/10 01:17:59;;;;;;;11.10;9.70;;;16.70;99.90;;;;;;4431828;32;20553;-66
2021/05/10 01:20:27;;;;;;;10.13;9.17;;;16.70;99.90;;;;;;4428237;32;20275;-65
2021/05/10 01:22:56;;;;;;;9.93;8.93;;;16.70;99.90;;;;;;4429433;32;20201;-66
2021/05/10 01:25:25;;;;;;;12.50;8.90;;;16.70;99.90;;;;;;4427422;32;20603;-66
2021/05/10 01:27:52;;;;;;;9.33;8.20;;;16.70;99.90;;;;;;4424582;32;20151;-67
2021/05/10 01:30:22;;;;;;;8.37;7.47;;;16.80;99.90;;;;;;4425392;32;20179;-66
2021/05/10 01:32:49;;;;;;;10.03;8.03;;;16.80;99.90;;;;;;4428347;32;20237;-66
2021/05/10 01:35:18;;;;;;;10.27;8.93;;;16.80;99.90;;;;;;4433533;32;20166;-67
2021/05/10 01:37:44;;;;;;;11.73;8.10;;;16.80;99.90;;;;;;4427098;32;20145;-67
2021/05/10 01:40:13;;;;;;;9.60;8.57;;;16.80;99.90;;;;;;4420051;32;20592;-66
2021/05/10 01:42:39;;;;;;;11.07;7.90;;;16.70;99.90;;;;;;4428527;32;20290;-69
2021/05/10 01:45:07;;;;;;;8.37;7.57;;;16.70;99.90;;;;;;4424672;32;20488;-68
2021/05/10 01:47:36;;;;;;;9.40;7.60;;;16.70;99.90;;;;;;4432304;32;20139;-66
2021/05/10 01:50:14;;;;;;;8.63;7.83;;;16.70;99.90;;;;;;4435425;32;20475;-67
2021/05/10 01:52:43;;;;;;;9.27;7.87;;;16.70;99.90;;;;;;4428951;32;20222;-66
2021/05/10 01:55:12;;;;;;;8.57;7.67;;;16.70;99.90;;;;;;4424778;32;20251;-66
2021/05/10 01:57:39;;;;;;;10.63;7.60;;;16.70;99.90;;;;;;4426857;32;20150;-67
2021/05/10 02:00:09;;;;;;;9.17;8.37;;;16.70;99.90;;;;;;4433312;32;20139;-65
2021/05/10 02:02:36;;;;;;;9.27;8.37;;;16.60;99.90;;;;;;4425911;32;20254;-66
2021/05/10 02:05:12;;;;;;;11.23;7.83;;;16.70;99.90;;;;;;4428056;32;20170;-68
2021/05/10 02:07:40;;;;;;;11.33;8.60;;;16.60;99.90;;;;;;4429490;32;20481;-66
2021/05/10 02:10:08;;;;;;;11.70;8.10;;;16.60;99.90;;;;;;4435175;32;20170;-66
2021/05/10 02:12:35;;;;;;;10.17;9.20;;;16.60;99.90;;;;;;4432056;32;20227;-67
2021/05/10 02:15:05;;;;;;;11.73;8.30;;;16.60;99.90;;;;;;4429294;32;20147;-66
2021/05/10 02:17:32;;;;;;;8.57;7.60;;;16.60;99.90;;;;;;4430753;32;20163;-67
2021/05/10 02:20:00;;;;;;;12.23;8.73;;;16.60;99.90;;;;;;4429412;32;20203;-65
2021/05/10 02:22:26;;;;;;;12.20;9.07;;;16.60;99.90;;;;;;4431191;32;20147;-65
2021/05/10 02:24:53;;;;;;;9.90;8.87;;;16.60;99.90;;;;;;4431432;32;20182;-68
2021/05/10 02:27:19;;;;;;;10.47;8.77;;;16.50;99.90;;;;;;4430539;32;20202;-65
2021/05/10 02:29:46;;;;;;;11.40;9.33;;;16.60;99.90;;;;;;4428309;32;20162;-66
2021/05/10 02:32:13;;;;;;;10.80;9.70;;;16.50;99.90;;;;;;4428053;32;20143;-67
2021/05/10 02:34:39;;;;;;;12.23;10.20;;;16.40;99.90;;;;;;4433860;32;20259;-66
2021/05/10 02:37:07;;;;;;;12.43;10.03;;;16.50;99.90;;;;;;4430495;32;20531;-66
2021/05/10 02:39:34;;;;;;;11.40;10.30;;;16.40;99.90;;;;;;4433632;32;20470;-67
2021/05/10 02:42:00;;;;;;;12.33;10.23;;;16.30;99.90;;;;;;4432811;32;20192;-66
2021/05/10 02:44:27;;;;;;;13.03;10.83;;;16.30;99.90;;;;;;4427343;32;20147;-65
2021/05/10 02:46:54;;;;;;;13.87;11.53;;;16.20;99.90;;;;;;4433869;32;20155;-66
2021/05/10 02:49:20;;;;;;;11.17;9.97;;;16.20;99.90;;;;;;4436614;32;20170;-67
2021/05/10 02:51:47;;;;;;;12.43;11.13;;;16.10;99.90;;;;;;4431360;32;20147;-68
2021/05/10 02:54:13;;;;;;;12.70;11.07;;;16.10;99.90;;;;;;4430140;32;20575;-66
2021/05/10 02:56:39;;;;;;;14.07;11.93;;;16.00;99.90;;;;;;4431062;32;20151;-67
2021/05/10 02:59:06;;;;;;;12.80;11.50;;;16.00;99.90;;;;;;4436229;32;20166;-67
2021/05/10 03:01:35;;;;;;;12.83;11.63;;;16.00;99.90;;;;;;4428766;32;20225;-66
2021/05/10 03:04:06;;;;;;;12.47;11.27;;;16.00;99.90;;;;;;4435102;32;20218;-67
2021/05/10 03:06:34;;;;;;;15.27;11.70;;;16.00;99.90;;;;;;4430259;32;20593;-66
2021/05/10 03:09:03;;;;;;;16.20;12.53;;;15.90;99.90;;;;;;4434073;32;20187;-68
2021/05/10 03:11:29;;;;;;;14.00;11.87;;;15.90;99.90;;;;;;4433496;32;20514;-66
2021/05/10 03:13:56;;;;;;;14.47;13.13;;;15.80;99.90;;;;;;4428349;32;20139;-67
2021/05/10 03:16:23;;;;;;;15.17;13.50;;;15.90;99.90;;;;;;4428048;32;20178;-66
2021/05/10 03:18:49;;;;;;;14.37;12.87;;;15.90;99.90;;;;;;4428053;32;20210;-65
2021/05/10 03:21:16;;;;;;;14.93;13.43;;;16.00;99.90;;;;;;4428690;32;20155;-66
2021/05/10 03:23:43;;;;;;;14.63;12.43;;;16.00;99.90;;;;;;4433278;32;20169;-65
2021/05/10 03:26:09;;;;;;;13.10;11.90;;;16.00;99.90;;;;;;4430134;32;20171;-64
2021/05/10 03:28:35;;;;;;;16.00;13.10;;;16.00;99.90;;;;;;4428337;32;20527;-68
2021/05/10 03:31:04;;;;;;;15.53;13.83;;;16.00;99.90;;;;;;4433346;32;20238;-68
2021/05/10 03:33:31;;;;;;;15.23;13.73;;;16.00;99.90;;;;;;4431933;32;20147;-67
2021/05/10 03:35:57;;;;;;;15.20;13.60;;;16.00;99.90;;;;;;4431588;32;20218;-66
2021/05/10 03:38:24;;;;;;;13.20;11.90;;;16.00;99.90;;;;;;4429414;32;20167;-65
2021/05/10 03:40:50;;;;;;;14.57;13.03;;;16.00;99.90;;;;;;4428639;32;20155;-65
2021/05/10 03:43:17;;;;;;;17.37;15.60;;;16.00;99.90;;;;;;4432626;32;20243;-67
2021/05/10 03:45:43;;;;;;;16.60;12.80;;;15.90;99.90;;;;;;4426736;32;20227;-67
2021/05/10 03:48:10;;;;;;;15.50;13.73;;;15.90;99.90;;;;;;4431444;32;20182;-65
2021/05/10 03:50:36;;;;;;;14.63;12.80;;;16.00;99.90;;;;;;4430339;32;20154;-65
2021/05/10 03:53:04;;;;;;;13.63;12.03;;;16.00;99.90;;;;;;4429730;32;20858;-66
2021/05/10 03:55:31;;;;;;;11.03;9.00;;;16.00;99.90;;;;;;4429983;32;20627;-67
2021/05/10 03:57:57;;;;;;;10.33;7.50;;;16.10;99.90;;;;;;4424102;32;20170;-65
2021/05/10 04:00:23;;;;;;;9.17;7.53;;;16.10;99.90;;;;;;4428557;32;20218;-65
2021/05/10 04:02:50;;;;;;;10.00;7.03;;;16.30;99.90;;;;;;4428135;32;20189;-65
2021/05/10 04:05:32;;;;;;;7.63;6.20;;;16.30;99.90;;;;;;4430474;32;20143;-68
2021/05/10 04:08:04;;;;;;;7.80;6.03;;;16.30;99.90;;;;;;4432628;32;20158;-66
2021/05/10 04:10:42;;;;;;;7.50;5.23;;;16.50;99.90;;;;;;4427110;32;20170;-65
2021/05/10 04:15:53;;;;;;;5.57;4.30;;;16.70;99.90;;;;;;4433663;32;20203;-67
2021/05/10 04:18:21;;;;;;;4.47;3.83;;;16.90;99.30;;;;;;4426021;32;20151;-67
2021/05/10 04:20:48;;;;;;;3.67;3.17;;;17.00;98.70;;;;;;4424969;32;20140;-64
2021/05/10 04:23:16;;;;;;;6.13;2.93;;;17.10;97.90;;;;;;4429789;32;20139;-65
2021/05/10 04:25:45;;;;;;;6.60;2.80;;;17.20;97.80;;;;;;4435109;32;20198;-67
2021/05/10 04:28:12;;;;;;;6.73;3.33;;;17.20;97.70;;;;;;4427816;32;20160;-65
2021/05/10 04:30:38;;;;;;;3.83;2.87;;;17.20;97.40;;;;;;4428963;32;20215;-66
2021/05/10 04:33:05;;;;;;;5.67;2.57;;;17.30;97.30;;;;;;4432671;32;20162;-65
2021/05/10 04:35:33;;;;;;;8.43;3.00;;;17.30;96.80;;;;;;4429683;32;20557;-65
2021/05/10 04:38:00;;;;;;;2.50;2.30;;;17.30;96.60;;;;;;4427155;32;20198;-66
2021/05/10 04:40:26;;;;;;;7.77;3.03;;;17.40;96.50;;;;;;4432610;32;20167;-65
2021/05/10 04:42:53;;;;;;;3.20;2.37;;;17.50;96.00;;;;;;4430182;32;20234;-66
2021/05/10 04:45:20;;;;;;;5.00;2.20;;;17.50;96.00;;;;;;4429209;32;20634;-66
2021/05/10 04:47:47;;;;;;;4.50;2.03;;;17.50;95.80;;;;;;4425397;32;20677;-65
2021/05/10 04:50:14;;;;;;;3.50;1.77;;;17.50;95.60;;;;;;4432300;32;20503;-64
2021/05/10 04:52:41;;;;;;;3.67;2.10;;;17.60;95.70;;;;;;4429791;32;20212;-64
2021/05/10 04:55:09;;;;;;;3.73;2.20;;;17.60;95.40;;;;;;4431037;32;20201;-66
2021/05/10 04:57:39;;;;;;;2.77;1.80;;;17.70;95.30;;;;;;4430145;32;20168;-67
2021/05/10 05:00:09;;;;;;;6.00;2.60;;;17.70;95.10;;;;;;4431437;32;20163;-68
2021/05/10 05:02:36;;;;;;;2.53;2.10;;;17.80;95.20;;;;;;4428005;32;20155;-65
2021/05/10 05:05:02;;;;;;;5.87;2.30;;;17.90;95.20;;;;;;4424619;32;20250;-65
2021/05/10 05:07:29;;;;;;;3.13;2.80;;;17.80;95.70;;;;;;4429398;32;20558;-64
2021/05/10 05:09:55;;;;;;;6.63;2.70;;;17.90;96.00;;;;;;4425348;32;20216;-68
2021/05/10 05:12:23;;;;;;;6.37;3.00;;;17.80;96.30;;;;;;4426991;32;20193;-65
2021/05/10 05:14:50;;;;;;;5.20;2.93;;;17.70;97.20;;;;;;4427773;32;20567;-66
2021/05/10 05:17:17;;;;;;;6.17;2.60;;;17.40;98.60;;;;;;4422803;32;20164;-67
2021/05/10 05:19:43;;;;;;;4.60;2.30;;;17.00;99.50;;;;;;4426667;32;20159;-66
2021/05/10 05:22:10;;;;;;;3.67;2.53;;;16.80;99.90;;;;;;4424192;32;20225;-67
2021/05/10 05:24:36;;;;;;;3.63;2.50;;;16.70;99.90;;;;;;4425188;32;20500;-66
2021/05/10 05:27:03;;;;;;;3.47;2.70;;;16.80;99.90;;;;;;4427487;32;20163;-68
2021/05/10 05:29:30;;;;;;;3.10;2.50;;;16.80;99.90;;;;;;4423377;32;20215;-66
2021/05/10 05:31:58;;;;;;;3.03;2.40;;;16.90;99.90;;;;;;4427307;32;20178;-67
2021/05/10 05:34:25;;;;;;;4.47;2.23;;;16.80;99.90;;;;;;4428316;32;20159;-66
2021/05/10 05:36:51;;;;;;;2.90;2.00;;;16.80;99.90;;;;;;4422609;32;20197;-67
2021/05/10 05:39:18;;;;;;;3.83;1.63;;;17.00;99.90;;;;;;4425609;32;20711;-66
2021/05/10 05:41:44;;;;;;;2.20;1.40;;;17.00;99.90;;;;;;4424494;32;20167;-69
2021/05/10 05:44:10;;;;;;;1.07;0.97;;;17.00;99.90;;;;;;4423043;32;20218;-66
2021/05/10 05:46:39;;;;;;;6.50;1.00;;;16.90;99.50;;;;;;4425492;32;20175;-66
2021/05/10 05:49:06;;;;;;;1.90;0.93;;;16.80;99.60;;;;;;4428917;32;20198;-65
2021/05/10 05:51:33;;;;;;;2.73;1.43;;;16.80;99.70;;;;;;4426710;32;20286;-67
2021/05/10 05:54:01;;;;;;;1.97;1.30;;;16.80;99.90;;;;;;4425092;32;20186;-68
2021/05/10 05:56:27;;;;;;;3.90;1.20;;;16.70;99.90;;;;;;4425384;32;20251;-68
2021/05/10 05:58:56;;;;;;;2.27;0.93;;;16.80;99.90;;;;;;4428103;32;20174;-64
2021/05/10 06:01:24;;;;;;;4.60;1.33;;;16.80;99.90;;;;;;4429192;32;20182;-67
2021/05/10 06:03:51;;;;;;;1.90;1.20;;;16.80;99.90;;;;;;4427644;32;20573;-67
2021/05/10 06:06:17;;;;;;;5.73;1.30;;;16.90;99.90;;;;;;4429904;32;20571;-67
2021/05/10 06:08:44;;;;;;;3.20;1.20;;;17.00;99.90;;;;;;4425683;32;20163;-67
2021/05/10 06:13:53;;;;;;;2.77;1.10;;;16.90;99.50;;;;;;4425872;32;20720;-66
2021/05/10 06:16:19;;;;;;;1.03;0.87;;;16.80;99.70;;;;;;4427789;32;20220;-67
2021/05/10 06:18:45;;;;;;;1.50;1.03;;;16.70;99.80;;;;;;4425853;32;20226;-69
2021/05/10 06:21:13;;;;;;;1.57;1.17;;;16.60;99.90;;;;;;4427096;32;20210;-68
2021/05/10 06:23:39;;;;;;;3.30;1.33;;;16.50;99.90;;;;;;4424939;32;20669;-67
2021/05/10 06:26:07;;;;;;;1.20;1.10;;;16.50;99.90;;;;;;4426089;32;20231;-66
2021/05/10 06:28:36;;;;;;;2.80;1.37;;;16.50;99.90;;;;;;4427542;32;20234;-67
2021/05/10 06:31:05;;;;;;;2.57;1.30;;;16.60;99.90;;;;;;4425492;32;20242;-67
2021/05/10 06:33:34;;;;;;;2.23;1.87;;;16.80;99.90;;;;;;4424984;32;20571;-67
2021/05/10 06:36:00;;;;;;;1.57;1.27;;;16.80;99.90;;;;;;4428533;32;20159;-67
2021/05/10 06:38:27;;;;;;;1.20;1.00;;;17.10;99.90;;;;;;4423239;32;20575;-66
2021/05/10 06:40:53;;;;;;;5.17;1.90;;;17.90;99.40;;;;;;4428023;32;20296;-68
2021/05/10 06:43:21;;;;;;;1.70;1.30;;;18.50;97.60;;;;;;4427704;32;20210;-68
2021/05/10 06:45:47;;;;;;;2.90;1.47;;;18.90;97.00;;;;;;4429953;32;20232;-67
2021/05/10 06:48:25;;;;;;;3.30;1.67;;;18.80;96.70;;;;;;4433096;32;20159;-67
2021/05/10 06:50:51;;;;;;;1.97;1.50;;;18.80;97.00;;;;;;4425564;32;20163;-67
2021/05/10 06:53:18;;;;;;;2.60;1.33;;;18.80;97.00;;;;;;4429351;32;20215;-67
2021/05/10 06:55:44;;;;;;;2.40;1.70;;;19.10;96.80;;;;;;4428337;32;20178;-66
2021/05/10 06:58:10;;;;;;;1.70;1.60;;;19.40;95.70;;;;;;4429787;32;20174;-67
2021/05/10 07:00:38;;;;;;;3.40;1.60;;;19.30;95.80;;;;;;4433404;32;20159;-68
2021/05/10 07:03:04;;;;;;;4.50;1.80;;;19.10;96.10;;;;;;4425260;32;20566;-67
2021/05/10 07:05:33;;;;;;;1.87;1.53;;;19.90;94.70;;;;;;4425321;32;20665;-67
2021/05/10 07:08:08;;;;;;;2.93;1.77;;;19.80;93.90;;;;;;4425307;32;20578;-67
2021/05/10 07:10:34;;;;;;;3.63;1.80;;;19.10;95.00;;;;;;4431838;32;20252;-67
2021/05/10 07:13:01;;;;;;;6.03;2.43;;;18.70;95.90;;;;;;4423849;32;20268;-66
2021/05/10 07:15:28;;;;;;;3.30;1.77;;;18.50;96.40;;;;;;4425651;32;20195;-66
2021/05/10 07:18:15;;;;;;;3.40;2.00;;;18.30;97.00;;;;;;4429848;32;20155;-67
2021/05/10 07:20:44;;;;;;;4.20;2.00;;;18.20;97.40;;;;;;4429367;32;20167;-66
2021/05/10 07:23:12;;;;;;;2.63;2.30;;;18.20;97.70;;;;;;4426420;32;20220;-66
2021/05/10 07:25:42;;;;;;;3.77;2.17;;;18.10;97.60;;;;;;4428570;32;20201;-66
2021/05/10 07:28:09;;;;;;;2.27;1.83;;;18.00;98.00;;;;;;4437097;32;20171;-65
2021/05/10 07:30:36;;;;;;;3.23;2.33;;;17.70;98.60;;;;;;4444840;32;20258;-68
2021/05/10 07:33:06;;;;;;;5.57;2.60;;;17.40;99.60;;;;;;4440688;32;20279;-65
2021/05/10 07:35:35;;;;;;;5.03;2.50;;;16.80;99.90;;;;;;4438644;32;20186;-67
2021/05/10 07:38:04;;;;;;;4.47;2.70;;;16.30;99.90;;;;;;4446805;32;20275;-68
2021/05/10 07:40:31;;;;;;;3.50;2.60;;;16.10;99.90;;;;;;4437151;32;20218;-64
2021/05/10 07:42:58;;;;;;;2.93;2.63;;;15.90;99.90;;;;;;4433451;32;20198;-65
2021/05/10 07:45:25;;;;;;;4.20;2.60;;;15.90;99.90;;;;;;4428148;32;20170;-66
2021/05/10 07:47:53;;;;;;;2.47;2.27;;;15.90;99.90;;;;;;4443116;32;20190;-66
2021/05/10 07:50:33;;;;;;;3.53;2.30;;;16.00;99.90;;;;;;4436822;32;20226;-67
2021/05/10 07:53:03;;;;;;;3.13;2.27;;;16.20;99.90;;;;;;4446201;32;20208;-65
2021/05/10 07:55:30;;;;;;;3.03;2.47;;;16.30;99.90;;;;;;4441100;32;20526;-66
2021/05/10 07:57:57;;;;;;;2.70;2.50;;;16.20;99.90;;;;;;4416874;32;20274;-69
2021/05/10 08:00:27;;;;;;;3.13;2.27;;;16.20;99.90;;;;;;4432977;32;20186;-66
2021/05/10 08:03:06;;;;;;;3.70;2.40;;;16.30;99.90;;;;;;4437516;32;20325;-66
2021/05/10 08:05:34;;;;;;;4.53;2.50;;;16.20;99.90;;;;;;4439291;32;20170;-65
2021/05/10 08:08:07;;;;;;;2.57;2.33;;;16.20;99.90;;;;;;4432241;32;20170;-66
2021/05/10 08:10:36;;;;;;;2.67;2.10;;;16.40;99.90;;;;;;4442695;32;20621;-66
2021/05/10 08:13:05;;;;;;;8.50;2.70;;;16.60;99.90;;;;;;4443421;32;20306;-66
2021/05/10 08:15:32;;;;;;;4.67;3.37;;;16.60;99.90;;;;;;4440222;32;20234;-68
2021/05/10 08:17:58;;;;;;;3.60;1.93;;;16.50;99.90;;;;;;4438403;32;20173;-67
2021/05/10 08:20:25;;;;;;;3.10;2.00;;;15.90;99.90;;;;;;4438200;32;20185;-68
2021/05/10 08:22:52;;;;;;;7.53;2.50;;;15.30;99.90;;;;;;4442379;32;20186;-64
2021/05/10 08:25:18;;;;;;;2.43;1.67;;;15.00;99.90;;;;;;4439388;32;20194;-65
2021/05/10 08:27:45;;;;;;;4.73;2.03;;;14.60;99.90;;;;;;4439815;32;20158;-66
2021/05/10 08:30:13;;;;;;;3.23;2.33;;;14.40;99.90;;;;;;4439233;32;20193;-63
2021/05/10 08:32:40;;;;;;;2.53;2.20;;;14.40;99.90;;;;;;4436196;32;20221;-68
2021/05/10 08:35:07;;;;;;;6.47;2.40;;;14.40;99.90;;;;;;4439487;32;20151;-64
2021/05/10 08:37:33;;;;;;;4.00;2.37;;;14.50;99.90;;;;;;4440778;32;20249;-67
2021/05/10 08:40:01;;;;;;;4.07;2.40;;;14.60;99.90;;;;;;4442367;32;20181;-65
2021/05/10 08:42:28;;;;;;;3.33;2.03;;;14.70;99.90;;;;;;4442586;32;20166;-68
2021/05/10 08:48:26;;;;;;;3.40;2.03;;;14.80;99.90;;;;;;4438889;32;20605;-64
2021/05/10 08:51:04;;;;;;;2.77;2.30;;;15.00;99.90;;;;;;4441834;32;20150;-65
2021/05/10 08:53:35;;;;;;;3.40;2.33;;;15.10;99.90;;;;;;4442126;32;20194;-67
2021/05/10 08:56:09;;;;;;;4.67;2.37;;;15.20;99.90;;;;;;4443934;32;20154;-65
2021/05/10 08:58:39;;;;;;;3.17;2.17;;;15.40;99.90;;;;;;4439750;32;20190;-65
2021/05/10 09:01:07;;;;;;;3.80;2.20;;;15.60;99.90;;;;;;4443545;32;20155;-67
2021/05/10 09:03:39;;;;;;;6.10;2.23;;;15.70;99.90;;;;;;4443853;32;20234;-69
2021/05/10 09:06:12;;;;;;;3.73;2.10;;;15.80;99.90;;;;;;4440855;32;20264;-68
2021/05/10 09:08:41;;;;;;;2.07;1.87;;;15.90;99.90;;;;;;4440659;32;20517;-68
2021/05/10 09:11:15;;;;;;;3.87;2.03;;;15.90;99.90;;;;;;4440686;32;20214;-67
2021/05/10 09:13:44;;;;;;;3.67;2.27;;;15.90;99.90;;;;;;4443117;32;20634;-66
2021/05/10 09:16:17;;;;;;;2.10;1.90;;;15.90;99.90;;;;;;4450759;32;20150;-67
2021/05/10 09:19:05;;;;;;;3.97;2.40;;;15.80;99.90;;;;;;4436395;32;20185;-66
2021/05/10 09:21:38;;;;;;;4.33;2.03;;;15.70;99.90;;;;;;4438875;32;20223;-66
2021/05/10 09:24:20;;;;;;;4.53;2.13;;;15.80;99.90;;;;;;4440861;32;20154;-66
2021/05/10 09:26:48;;;;;;;5.40;2.97;;;16.00;99.90;;;;;;4441039;32;20202;-68
2021/05/10 09:29:26;;;;;;;3.60;2.40;;;16.30;99.90;;;;;;4445113;32;20163;-68
2021/05/10 09:31:53;;;;;;;3.00;1.90;;;16.30;99.90;;;;;;4442820;32;20245;-68
2021/05/10 09:34:31;;;;;;;2.40;2.00;;;16.30;99.90;;;;;;4450986;32;20182;-66
2021/05/10 09:37:03;;;;;;;3.47;2.00;;;16.00;99.90;;;;;;4445508;32;20206;-67
2021/05/10 09:39:30;;;;;;;3.20;2.37;;;15.90;99.90;;;;;;4440892;32;20170;-66
2021/05/10 09:42:09;;;;;;;2.17;1.77;;;15.90;99.90;;;;;;4453553;32;20189;-66
2021/05/10 09:44:45;;;;;;;5.83;2.03;;;15.80;99.90;;;;;;4439847;32;20680;-68
2021/05/10 09:47:12;;;;;;;2.47;1.93;;;15.80;99.90;;;;;;4444123;32;20240;-69
2021/05/10 09:49:46;;;;;;;4.23;2.10;;;15.70;99.90;;;;;;4439658;32;20150;-69
2021/05/10 09:52:20;;;;;;;4.70;1.93;;;15.60;99.90;;;;;;4444541;32;20215;-68
2021/05/10 09:54:54;;;;;;;8.63;2.47;;;15.70;99.90;;;;;;4440615;32;20215;-66
2021/05/10 09:57:30;;;;;;;5.20;2.33;;;15.70;99.90;;;;;;4441091;32;20218;-67
2021/05/10 10:00:24;;;;;;;5.23;2.50;;;15.60;99.90;;;;;;4447201;32;20162;-67
2021/05/10 10:02:55;;;;;;;7.00;3.97;;;15.50;99.90;;;;;;4443621;32;20572;-68
2021/05/10 10:05:21;;;;;;;8.13;4.13;;;15.70;99.90;;;;;;4438446;32;20155;-67
2021/05/10 10:07:54;;;;;;;6.63;4.93;;;15.70;99.90;;;;;;4447771;32;20710;-64
2021/05/10 10:10:26;;;;;;;5.83;4.37;;;15.80;99.90;;;;;;4450312;32;20194;-67
2021/05/10 10:12:55;;;;;;;5.00;4.23;;;15.90;99.90;;;;;;4446631;32;20170;-68
2021/05/10 10:15:23;;;;;;;7.60;5.03;;;16.10;99.90;;;;;;4442815;32;20241;-68
2021/05/10 10:17:57;;;;;;;5.90;4.90;;;16.20;99.90;;;;;;4442495;32;20178;-68
2021/05/10 10:20:25;;;;;;;6.57;4.93;;;16.10;99.90;;;;;;4447800;32;20570;-68
2021/05/10 10:22:54;;;;;;;9.07;5.30;;;15.90;99.90;;;;;;4445708;32;20159;-69
2021/05/10 10:25:22;;;;;;;6.70;5.20;;;15.90;99.90;;;;;;4440402;32;20217;-67
2021/05/10 10:27:50;;;;;;;6.80;5.90;;;16.00;99.90;;;;;;4444018;32;20176;-68
2021/05/10 10:30:23;;;;;;;7.00;6.17;;;15.90;99.90;;;;;;4441325;32;20205;-68
2021/05/10 10:32:51;;;;;;;9.70;6.13;;;15.80;99.90;;;;;;4443388;32;20279;-68
2021/05/10 10:35:20;;;;;;;8.00;7.20;;;15.50;99.90;;;;;;4443608;32;20163;-69
2021/05/10 10:38:02;;;;;;;8.63;7.73;;;15.30;99.90;;;;;;4444084;32;20479;-66
2021/05/10 10:40:29;;;;;;;7.80;6.90;;;15.10;99.90;;;;;;4440611;32;20151;-66
2021/05/10 10:43:23;;;;;;;9.77;6.13;;;14.80;99.90;;;;;;4444328;32;20163;-66
2021/05/10 10:46:16;;;;;;;8.03;6.47;;;14.60;99.90;;;;;;4441848;32;20311;-67
2021/05/10 10:48:46;;;;;;;9.70;6.77;;;14.40;99.90;;;;;;4441493;32;20631;-68
2021/05/10 10:51:14;;;;;;;8.73;6.37;;;14.20;99.90;;;;;;4444035;32;20462;-68
2021/05/10 10:57:34;;;;;;;15.53;9.00;;;14.10;99.90;;;;;;4445278;32;20196;-67
2021/05/10 11:00:01;;;;;;;9.53;8.13;;;14.20;99.90;;;;;;4440745;32;20669;-68
2021/05/10 11:02:39;;;;;;;11.07;9.23;;;14.30;99.90;;;;;;4441758;32;20693;-68
2021/05/10 11:05:10;;;;;;;10.53;9.47;;;14.50;99.90;;;;;;4441211;32;20159;-67
2021/05/10 11:07:47;;;;;;;9.93;8.47;;;14.60;99.90;;;;;;4444867;32;20174;-65
2021/05/10 11:10:42;;;;;;;9.03;8.03;;;14.60;99.90;;;;;;4444485;32;20165;-67
2021/05/10 11:13:09;;;;;;;10.10;7.20;;;14.60;99.90;;;;;;4438245;32;20155;-68
2021/05/10 11:15:46;;;;;;;8.53;6.53;;;14.60;99.90;;;;;;4449260;32;20602;-67
2021/05/10 11:18:36;;;;;;;8.47;6.23;;;14.60;99.90;;;;;;4439186;32;20501;-64
2021/05/10 11:21:04;;;;;;;10.20;6.33;;;14.60;99.90;;;;;;4448117;32;20164;-70
2021/05/10 11:23:37;;;;;;;8.07;5.93;;;14.70;99.90;;;;;;4436956;32;20169;-69
2021/05/10 11:26:06;;;;;;;7.07;4.67;;;15.00;99.90;;;;;;4441949;32;20163;-63
2021/05/10 11:28:47;;;;;;;5.37;3.83;;;15.20;99.90;;;;;;4423351;32;20220;-65
2021/05/10 11:31:16;;;;;;;7.47;4.03;;;15.30;99.90;;;;;;4417927;32;20159;-65
2021/05/10 11:34:08;;;;;;;5.60;3.87;;;15.50;99.90;;;;;;4417309;32;20181;-65
2021/05/10 11:36:36;;;;;;;5.70;4.17;;;15.90;99.90;;;;;;4413268;32;20571;-66
2021/05/10 11:39:08;;;;;;;4.80;3.50;;;16.40;99.90;;;;;;4416919;32;20160;-68
2021/05/10 11:41:35;;;;;;;5.20;3.70;;;17.20;99.90;;;;;;4417457;32;20179;-67
2021/05/10 11:44:07;;;;;;;5.57;4.07;;;17.40;99.90;;;;;;4419678;32;20163;-67
2021/05/10 11:46:35;;;;;;;7.23;3.70;;;17.80;99.90;;;;;;4419584;32;20177;-67
2021/05/10 11:49:01;;;;;;;6.23;3.60;;;18.40;99.90;;;;;;4415492;32;20457;-67
2021/05/10 11:51:37;;;;;;;6.67;3.80;;;19.00;99.80;;;;;;4417279;32;20503;-71
2021/05/10 11:54:09;;;;;;;6.00;3.70;;;19.40;98.60;;;;;;4418997;32;20501;-67
2021/05/10 11:56:41;;;;;;;6.13;4.00;;;19.50;97.20;;;;;;4422831;32;20558;-68
2021/05/10 11:59:39;;;;;;;6.73;4.43;;;19.50;97.00;;;;;;4419445;32;20220;-68
2021/05/10 12:02:18;;;;;;;6.40;3.90;;;19.50;97.40;;;;;;4419840;32;20164;-68
2021/05/10 12:04:48;;;;;;;4.53;3.30;;;19.60;97.20;;;;;;4418954;32;20242;-67
2021/05/10 12:07:16;;;;;;;7.43;4.30;;;19.60;95.00;;;;;;4415843;32;20205;-68
2021/05/10 12:09:48;;;;;;;7.17;3.90;;;19.70;94.50;;;;;;4415296;32;20155;-68
2021/05/10 12:12:23;;;;;;;5.37;3.80;;;19.60;94.80;;;;;;4415271;32;20164;-66
2021/05/10 12:14:51;;;;;;;5.93;4.00;;;19.40;93.60;;;;;;4413602;32;20159;-67
2021/05/10 12:17:20;;;;;;;8.93;3.80;;;19.50;93.80;;;;;;4416925;32;20166;-67
2021/05/10 12:20:06;;;;;;;6.60;4.53;;;19.60;93.20;;;;;;4415290;32;20193;-67
2021/05/10 12:22:35;;;;;;;8.50;4.73;;;19.30;92.10;;;;;;4414635;32;20163;-68
2021/05/10 12:25:17;;;;;;;8.63;4.47;;;19.10;92.20;;;;;;4417732;32;20167;-66
2021/05/10 12:27:50;;;;;;;5.83;4.57;;;19.40;93.70;;;;;;4429536;32;20625;-69
2021/05/10 12:30:24;;;;;;;7.47;4.80;;;19.40;92.70;;;;;;4437913;32;20270;-65
2021/05/10 12:32:52;;;;;;;7.30;5.57;;;19.40;92.80;;;;;;4440597;32;20247;-68
2021/05/10 12:35:21;;;;;;;8.30;4.80;;;19.40;92.10;;;;;;4439905;32;20182;-68
2021/05/10 12:37:50;;;;;;;9.53;5.40;;;19.80;93.00;;;;;;4449696;32;20178;-66
2021/05/10 12:40:18;;;;;;;7.57;4.43;;;19.90;91.00;;;;;;4441816;32;20151;-67
2021/05/10 12:42:46;;;;;;;8.13;4.80;;;19.70;91.70;;;;;;4443538;32;20185;-68
2021/05/10 12:45:14;;;;;;;7.20;4.27;;;19.40;92.10;;;;;;4441090;32;20212;-67
2021/05/10 12:47:42;;;;;;;9.17;4.80;;;19.30;92.20;;;;;;4442598;32;20246;-68
2021/05/10 12:50:10;;;;;;;7.17;4.53;;;19.20;91.50;;;;;;4443355;32;20252;-68
2021/05/10 12:52:52;;;;;;;8.83;4.90;;;18.80;92.50;;;;;;4440782;32;20158;-68
2021/05/10 12:55:20;;;;;;;8.20;4.47;;;18.50;92.90;;;;;;4448863;32;20158;-68
2021/05/10 12:57:47;;;;;;;9.27;5.43;;;18.40;93.50;;;;;;4446898;32;20211;-67
2021/05/10 13:00:35;;;;;;;9.83;4.93;;;18.30;93.60;;;;;;4446041;32;20231;-67
2021/05/10 13:03:04;;;;;;;9.37;4.90;;;18.30;94.00;;;;;;4438747;32;20162;-69
2021/05/10 13:05:40;;;;;;;10.00;4.53;;;19.10;93.90;;;;;;4439398;32;20194;-66
2021/05/10 13:08:09;;;;;;;7.13;4.80;;;20.10;91.70;;;;;;4440913;32;20182;-67